sensor_id;sensor_type;location;lat;lon;timestamp;P1;durP1;ratioP1;P2;durP2;ratioP2
3333;SDS011;1679;50.392;8.008;2023-09-30T00:01:47;9.60;;;5.00;;
3333;SDS011;1679;50.392;8.008;2023-09-30T00:04:12;6.80;;;4.47;;
3333;SDS011;1679;50.392;8.008;2023-09-30T00:06:38;10.20;;;5.10;;
3333;SDS011;1679;50.392;8.008;2023-09-30T00:09:03;8.80;;;4.83;;
3333;SDS011;1679;50.392;8.008;2023-09-30T00:11:30;11.03;;;5.30;;
3333;SDS011;1679;50.392;8.008;2023-09-30T00:13:56;8.97;;;5.60;;
3333;SDS011;1679;50.392;8.008;2023-09-30T00:16:21;13.33;;;5.73;;
3333;SDS011;1679;50.392;8.008;2023-09-30T00:18:47;9.50;;;4.87;;
3333;SDS011;1679;50.392;8.008;2023-09-30T00:21:12;13.37;;;6.67;;
3333;SDS011;1679;50.392;8.008;2023-09-30T00:23:40;16.40;;;6.00;;
3333;SDS011;1679;50.392;8.008;2023-09-30T00:26:05;11.70;;;4.90;;
3333;SDS011;1679;50.392;8.008;2023-09-30T00:28:31;8.27;;;5.17;;
3333;SDS011;1679;50.392;8.008;2023-09-30T00:30:56;14.30;;;6.50;;
3333;SDS011;1679;50.392;8.008;2023-09-30T00:33:23;12.60;;;6.07;;
3333;SDS011;1679;50.392;8.008;2023-09-30T00:35:48;10.37;;;6.53;;
3333;SDS011;1679;50.392;8.008;2023-09-30T00:38:14;12.70;;;6.27;;
3333;SDS011;1679;50.392;8.008;2023-09-30T00:40:45;13.60;;;5.77;;
3333;SDS011;1679;50.392;8.008;2023-09-30T00:43:19;9.43;;;5.63;;
3333;SDS011;1679;50.392;8.008;2023-09-30T00:45:45;11.10;;;5.30;;
3333;SDS011;1679;50.392;8.008;2023-09-30T00:48:12;14.87;;;6.00;;
3333;SDS011;1679;50.392;8.008;2023-09-30T00:50:37;11.07;;;6.77;;
3333;SDS011;1679;50.392;8.008;2023-09-30T00:53:05;11.90;;;5.60;;
3333;SDS011;1679;50.392;8.008;2023-09-30T00:55:30;12.30;;;5.90;;
3333;SDS011;1679;50.392;8.008;2023-09-30T00:57:56;11.20;;;5.40;;
3333;SDS011;1679;50.392;8.008;2023-09-30T01:00:22;13.13;;;5.70;;
3333;SDS011;1679;50.392;8.008;2023-09-30T01:02:50;12.23;;;5.17;;
3333;SDS011;1679;50.392;8.008;2023-09-30T01:05:17;8.70;;;4.57;;
3333;SDS011;1679;50.392;8.008;2023-09-30T01:07:43;15.50;;;5.10;;
3333;SDS011;1679;50.392;8.008;2023-09-30T01:10:10;7.53;;;4.90;;
3333;SDS011;1679;50.392;8.008;2023-09-30T01:12:36;10.77;;;5.17;;
3333;SDS011;1679;50.392;8.008;2023-09-30T01:15:03;14.17;;;5.27;;
3333;SDS011;1679;50.392;8.008;2023-09-30T01:17:30;10.07;;;5.63;;
3333;SDS011;1679;50.392;8.008;2023-09-30T01:19:57;10.07;;;5.20;;
3333;SDS011;1679;50.392;8.008;2023-09-30T01:22:26;9.27;;;5.23;;
3333;SDS011;1679;50.392;8.008;2023-09-30T01:24:53;10.40;;;5.60;;
3333;SDS011;1679;50.392;8.008;2023-09-30T01:27:19;16.97;;;5.10;;
3333;SDS011;1679;50.392;8.008;2023-09-30T01:29:45;11.60;;;5.60;;
3333;SDS011;1679;50.392;8.008;2023-09-30T01:32:11;15.07;;;6.13;;
3333;SDS011;1679;50.392;8.008;2023-09-30T01:34:36;18.93;;;7.27;;
3333;SDS011;1679;50.392;8.008;2023-09-30T01:37:02;12.87;;;5.60;;
3333;SDS011;1679;50.392;8.008;2023-09-30T01:39:27;10.47;;;5.93;;
3333;SDS011;1679;50.392;8.008;2023-09-30T01:41:54;9.90;;;7.23;;
3333;SDS011;1679;50.392;8.008;2023-09-30T01:44:21;8.50;;;5.60;;
3333;SDS011;1679;50.392;8.008;2023-09-30T01:46:49;12.73;;;6.10;;
3333;SDS011;1679;50.392;8.008;2023-09-30T01:49:16;16.17;;;7.33;;
3333;SDS011;1679;50.392;8.008;2023-09-30T01:51:43;8.67;;;5.90;;
3333;SDS011;1679;50.392;8.008;2023-09-30T01:54:09;17.87;;;6.50;;
3333;SDS011;1679;50.392;8.008;2023-09-30T01:56:35;14.70;;;6.67;;
3333;SDS011;1679;50.392;8.008;2023-09-30T01:59:01;12.57;;;5.93;;
3333;SDS011;1679;50.392;8.008;2023-09-30T02:01:27;10.53;;;6.93;;
3333;SDS011;1679;50.392;8.008;2023-09-30T02:03:53;13.93;;;6.43;;
3333;SDS011;1679;50.392;8.008;2023-09-30T02:06:19;12.10;;;6.07;;
3333;SDS011;1679;50.392;8.008;2023-09-30T02:08:45;8.67;;;6.63;;
3333;SDS011;1679;50.392;8.008;2023-09-30T02:11:11;13.90;;;7.07;;
3333;SDS011;1679;50.392;8.008;2023-09-30T02:13:38;11.93;;;7.20;;
3333;SDS011;1679;50.392;8.008;2023-09-30T02:16:05;18.57;;;8.60;;
3333;SDS011;1679;50.392;8.008;2023-09-30T02:18:36;12.20;;;7.23;;
3333;SDS011;1679;50.392;8.008;2023-09-30T02:21:01;18.20;;;8.33;;
3333;SDS011;1679;50.392;8.008;2023-09-30T02:23:29;16.43;;;7.90;;
3333;SDS011;1679;50.392;8.008;2023-09-30T02:25:54;17.53;;;7.27;;
3333;SDS011;1679;50.392;8.008;2023-09-30T02:28:21;16.60;;;7.37;;
3333;SDS011;1679;50.392;8.008;2023-09-30T02:30:47;15.80;;;7.43;;
3333;SDS011;1679;50.392;8.008;2023-09-30T02:33:13;17.17;;;8.47;;
3333;SDS011;1679;50.392;8.008;2023-09-30T02:35:43;17.53;;;8.37;;
3333;SDS011;1679;50.392;8.008;2023-09-30T02:38:10;15.03;;;7.30;;
3333;SDS011;1679;50.392;8.008;2023-09-30T02:40:36;18.70;;;8.50;;
3333;SDS011;1679;50.392;8.008;2023-09-30T02:43:03;17.43;;;8.97;;
3333;SDS011;1679;50.392;8.008;2023-09-30T02:45:29;21.07;;;8.20;;
3333;SDS011;1679;50.392;8.008;2023-09-30T02:47:54;17.93;;;8.77;;
3333;SDS011;1679;50.392;8.008;2023-09-30T02:50:20;17.07;;;8.63;;
3333;SDS011;1679;50.392;8.008;2023-09-30T02:52:46;19.57;;;9.00;;
3333;SDS011;1679;50.392;8.008;2023-09-30T02:55:11;22.10;;;9.10;;
3333;SDS011;1679;50.392;8.008;2023-09-30T02:57:38;17.43;;;8.97;;
3333;SDS011;1679;50.392;8.008;2023-09-30T03:00:05;16.37;;;9.63;;
3333;SDS011;1679;50.392;8.008;2023-09-30T03:02:54;24.87;;;8.53;;
3333;SDS011;1679;50.392;8.008;2023-09-30T03:05:22;16.13;;;9.23;;
3333;SDS011;1679;50.392;8.008;2023-09-30T03:07:52;17.83;;;9.27;;
3333;SDS011;1679;50.392;8.008;2023-09-30T03:10:19;18.83;;;8.57;;
3333;SDS011;1679;50.392;8.008;2023-09-30T03:12:48;16.33;;;8.27;;
3333;SDS011;1679;50.392;8.008;2023-09-30T03:15:14;14.67;;;8.10;;
3333;SDS011;1679;50.392;8.008;2023-09-30T03:17:41;15.30;;;7.57;;
3333;SDS011;1679;50.392;8.008;2023-09-30T03:20:09;20.37;;;9.40;;
3333;SDS011;1679;50.392;8.008;2023-09-30T03:22:39;18.73;;;9.03;;
3333;SDS011;1679;50.392;8.008;2023-09-30T03:25:12;16.40;;;8.53;;
3333;SDS011;1679;50.392;8.008;2023-09-30T03:27:40;18.20;;;8.80;;
3333;SDS011;1679;50.392;8.008;2023-09-30T03:30:06;20.07;;;8.60;;
3333;SDS011;1679;50.392;8.008;2023-09-30T03:32:35;16.40;;;8.70;;
3333;SDS011;1679;50.392;8.008;2023-09-30T03:35:07;18.80;;;7.90;;
3333;SDS011;1679;50.392;8.008;2023-09-30T03:37:36;21.23;;;9.10;;
3333;SDS011;1679;50.392;8.008;2023-09-30T03:40:02;18.10;;;8.20;;
3333;SDS011;1679;50.392;8.008;2023-09-30T03:42:38;11.80;;;8.37;;
3333;SDS011;1679;50.392;8.008;2023-09-30T03:45:05;16.10;;;9.90;;
3333;SDS011;1679;50.392;8.008;2023-09-30T03:47:35;15.80;;;8.10;;
3333;SDS011;1679;50.392;8.008;2023-09-30T03:50:02;14.73;;;8.40;;
3333;SDS011;1679;50.392;8.008;2023-09-30T03:52:28;19.30;;;9.63;;
3333;SDS011;1679;50.392;8.008;2023-09-30T03:54:54;16.13;;;8.50;;
3333;SDS011;1679;50.392;8.008;2023-09-30T03:57:19;21.83;;;9.80;;
3333;SDS011;1679;50.392;8.008;2023-09-30T03:59:46;15.83;;;9.03;;
3333;SDS011;1679;50.392;8.008;2023-09-30T04:02:12;28.07;;;10.13;;
3333;SDS011;1679;50.392;8.008;2023-09-30T04:04:39;24.87;;;10.77;;
3333;SDS011;1679;50.392;8.008;2023-09-30T04:07:05;20.93;;;10.47;;
3333;SDS011;1679;50.392;8.008;2023-09-30T04:09:34;27.27;;;10.90;;
3333;SDS011;1679;50.392;8.008;2023-09-30T04:12:01;23.97;;;10.40;;
3333;SDS011;1679;50.392;8.008;2023-09-30T04:14:26;22.20;;;9.73;;
3333;SDS011;1679;50.392;8.008;2023-09-30T04:16:52;22.00;;;11.03;;
3333;SDS011;1679;50.392;8.008;2023-09-30T04:19:19;22.73;;;11.00;;
3333;SDS011;1679;50.392;8.008;2023-09-30T04:21:45;25.73;;;11.20;;
3333;SDS011;1679;50.392;8.008;2023-09-30T04:24:10;20.53;;;10.27;;
3333;SDS011;1679;50.392;8.008;2023-09-30T04:26:36;24.90;;;10.80;;
3333;SDS011;1679;50.392;8.008;2023-09-30T04:29:02;22.27;;;10.40;;
3333;SDS011;1679;50.392;8.008;2023-09-30T04:31:35;18.20;;;10.47;;
3333;SDS011;1679;50.392;8.008;2023-09-30T04:34:03;21.07;;;9.97;;
3333;SDS011;1679;50.392;8.008;2023-09-30T04:36:29;27.00;;;10.17;;
3333;SDS011;1679;50.392;8.008;2023-09-30T04:38:55;21.20;;;9.30;;
3333;SDS011;1679;50.392;8.008;2023-09-30T04:41:21;18.00;;;9.70;;
3333;SDS011;1679;50.392;8.008;2023-09-30T04:43:47;21.87;;;11.00;;
3333;SDS011;1679;50.392;8.008;2023-09-30T04:46:13;14.87;;;8.87;;
3333;SDS011;1679;50.392;8.008;2023-09-30T04:48:39;15.67;;;8.87;;
3333;SDS011;1679;50.392;8.008;2023-09-30T04:51:06;13.13;;;7.83;;
3333;SDS011;1679;50.392;8.008;2023-09-30T04:53:33;11.67;;;7.03;;
3333;SDS011;1679;50.392;8.008;2023-09-30T04:55:58;13.27;;;8.07;;
3333;SDS011;1679;50.392;8.008;2023-09-30T04:58:26;17.37;;;8.70;;
3333;SDS011;1679;50.392;8.008;2023-09-30T05:00:52;13.73;;;8.00;;
3333;SDS011;1679;50.392;8.008;2023-09-30T05:03:19;11.47;;;6.70;;
3333;SDS011;1679;50.392;8.008;2023-09-30T05:05:44;14.20;;;7.60;;
3333;SDS011;1679;50.392;8.008;2023-09-30T05:08:10;15.50;;;8.23;;
3333;SDS011;1679;50.392;8.008;2023-09-30T05:10:37;14.47;;;7.40;;
3333;SDS011;1679;50.392;8.008;2023-09-30T05:13:03;16.80;;;6.73;;
3333;SDS011;1679;50.392;8.008;2023-09-30T05:15:28;15.03;;;7.23;;
3333;SDS011;1679;50.392;8.008;2023-09-30T05:17:57;13.67;;;8.23;;
3333;SDS011;1679;50.392;8.008;2023-09-30T05:20:23;17.73;;;9.10;;
3333;SDS011;1679;50.392;8.008;2023-09-30T05:22:49;14.70;;;8.90;;
3333;SDS011;1679;50.392;8.008;2023-09-30T05:25:15;13.93;;;7.90;;
3333;SDS011;1679;50.392;8.008;2023-09-30T05:27:42;13.10;;;8.73;;
3333;SDS011;1679;50.392;8.008;2023-09-30T05:30:13;16.33;;;8.77;;
3333;SDS011;1679;50.392;8.008;2023-09-30T05:32:41;21.73;;;9.50;;
3333;SDS011;1679;50.392;8.008;2023-09-30T05:35:08;16.97;;;8.40;;
3333;SDS011;1679;50.392;8.008;2023-09-30T05:37:40;14.70;;;8.80;;
3333;SDS011;1679;50.392;8.008;2023-09-30T05:40:06;13.67;;;8.43;;
3333;SDS011;1679;50.392;8.008;2023-09-30T05:42:43;18.60;;;8.53;;
3333;SDS011;1679;50.392;8.008;2023-09-30T05:45:10;16.07;;;8.83;;
3333;SDS011;1679;50.392;8.008;2023-09-30T05:47:38;17.07;;;8.83;;
3333;SDS011;1679;50.392;8.008;2023-09-30T05:50:03;15.17;;;8.60;;
3333;SDS011;1679;50.392;8.008;2023-09-30T05:52:32;19.63;;;8.70;;
3333;SDS011;1679;50.392;8.008;2023-09-30T05:54:58;24.23;;;11.40;;
3333;SDS011;1679;50.392;8.008;2023-09-30T05:57:25;23.63;;;10.77;;
3333;SDS011;1679;50.392;8.008;2023-09-30T05:59:52;25.80;;;11.60;;
3333;SDS011;1679;50.392;8.008;2023-09-30T06:02:18;36.40;;;10.40;;
3333;SDS011;1679;50.392;8.008;2023-09-30T06:04:44;23.93;;;10.93;;
3333;SDS011;1679;50.392;8.008;2023-09-30T06:07:11;33.47;;;12.10;;
3333;SDS011;1679;50.392;8.008;2023-09-30T06:09:37;127.97;;;14.80;;
3333;SDS011;1679;50.392;8.008;2023-09-30T06:12:02;25.63;;;10.50;;
3333;SDS011;1679;50.392;8.008;2023-09-30T06:14:31;58.77;;;11.40;;
3333;SDS011;1679;50.392;8.008;2023-09-30T06:16:59;19.93;;;10.47;;
3333;SDS011;1679;50.392;8.008;2023-09-30T06:19:25;20.80;;;10.70;;
3333;SDS011;1679;50.392;8.008;2023-09-30T06:21:51;25.83;;;10.43;;
3333;SDS011;1679;50.392;8.008;2023-09-30T06:24:17;34.30;;;10.57;;
3333;SDS011;1679;50.392;8.008;2023-09-30T06:26:45;29.30;;;10.00;;
3333;SDS011;1679;50.392;8.008;2023-09-30T06:29:14;61.80;;;10.90;;
3333;SDS011;1679;50.392;8.008;2023-09-30T06:31:39;58.43;;;10.67;;
3333;SDS011;1679;50.392;8.008;2023-09-30T06:34:05;36.03;;;9.63;;
3333;SDS011;1679;50.392;8.008;2023-09-30T06:36:32;39.93;;;11.00;;
3333;SDS011;1679;50.392;8.008;2023-09-30T06:38:59;32.40;;;9.97;;
3333;SDS011;1679;50.392;8.008;2023-09-30T06:41:26;33.30;;;10.40;;
3333;SDS011;1679;50.392;8.008;2023-09-30T06:43:52;23.50;;;10.40;;
3333;SDS011;1679;50.392;8.008;2023-09-30T06:46:18;14.63;;;9.00;;
3333;SDS011;1679;50.392;8.008;2023-09-30T06:48:44;15.83;;;9.63;;
3333;SDS011;1679;50.392;8.008;2023-09-30T06:51:14;21.37;;;8.90;;
3333;SDS011;1679;50.392;8.008;2023-09-30T06:53:40;35.37;;;9.90;;
3333;SDS011;1679;50.392;8.008;2023-09-30T06:56:05;24.77;;;9.50;;
3333;SDS011;1679;50.392;8.008;2023-09-30T06:58:31;41.77;;;9.17;;
3333;SDS011;1679;50.392;8.008;2023-09-30T07:00:58;30.47;;;9.37;;
3333;SDS011;1679;50.392;8.008;2023-09-30T07:03:23;29.33;;;9.53;;
3333;SDS011;1679;50.392;8.008;2023-09-30T07:05:50;28.30;;;8.83;;
3333;SDS011;1679;50.392;8.008;2023-09-30T07:08:18;14.57;;;8.23;;
3333;SDS011;1679;50.392;8.008;2023-09-30T07:10:48;22.03;;;8.77;;
3333;SDS011;1679;50.392;8.008;2023-09-30T07:13:16;14.17;;;9.13;;
3333;SDS011;1679;50.392;8.008;2023-09-30T07:15:42;17.83;;;8.90;;
3333;SDS011;1679;50.392;8.008;2023-09-30T07:18:08;18.77;;;8.73;;
3333;SDS011;1679;50.392;8.008;2023-09-30T07:20:34;22.87;;;9.03;;
3333;SDS011;1679;50.392;8.008;2023-09-30T07:23:00;38.67;;;8.20;;
3333;SDS011;1679;50.392;8.008;2023-09-30T07:25:27;17.87;;;8.20;;
3333;SDS011;1679;50.392;8.008;2023-09-30T07:27:53;50.37;;;8.83;;
3333;SDS011;1679;50.392;8.008;2023-09-30T07:30:18;9.63;;;7.70;;
3333;SDS011;1679;50.392;8.008;2023-09-30T07:32:44;18.27;;;7.50;;
3333;SDS011;1679;50.392;8.008;2023-09-30T07:35:11;12.50;;;7.03;;
3333;SDS011;1679;50.392;8.008;2023-09-30T07:37:37;11.47;;;7.87;;
3333;SDS011;1679;50.392;8.008;2023-09-30T07:40:03;20.43;;;7.97;;
3333;SDS011;1679;50.392;8.008;2023-09-30T07:42:30;27.03;;;7.63;;
3333;SDS011;1679;50.392;8.008;2023-09-30T07:44:58;42.90;;;7.60;;
3333;SDS011;1679;50.392;8.008;2023-09-30T07:47:24;30.00;;;7.47;;
3333;SDS011;1679;50.392;8.008;2023-09-30T07:49:50;29.83;;;8.10;;
3333;SDS011;1679;50.392;8.008;2023-09-30T07:52:15;22.50;;;7.90;;
3333;SDS011;1679;50.392;8.008;2023-09-30T07:54:41;31.97;;;7.90;;
3333;SDS011;1679;50.392;8.008;2023-09-30T07:57:07;22.07;;;8.00;;
3333;SDS011;1679;50.392;8.008;2023-09-30T07:59:32;14.87;;;8.90;;
3333;SDS011;1679;50.392;8.008;2023-09-30T08:01:58;13.20;;;8.87;;
3333;SDS011;1679;50.392;8.008;2023-09-30T08:04:24;11.87;;;7.63;;
3333;SDS011;1679;50.392;8.008;2023-09-30T08:06:50;14.90;;;7.63;;
3333;SDS011;1679;50.392;8.008;2023-09-30T08:09:18;13.03;;;7.10;;
3333;SDS011;1679;50.392;8.008;2023-09-30T08:11:44;10.97;;;7.30;;
3333;SDS011;1679;50.392;8.008;2023-09-30T08:14:10;11.90;;;8.47;;
3333;SDS011;1679;50.392;8.008;2023-09-30T08:16:36;16.53;;;8.40;;
3333;SDS011;1679;50.392;8.008;2023-09-30T08:19:02;10.90;;;7.40;;
3333;SDS011;1679;50.392;8.008;2023-09-30T08:21:29;12.10;;;7.90;;
3333;SDS011;1679;50.392;8.008;2023-09-30T08:23:55;11.90;;;7.87;;
3333;SDS011;1679;50.392;8.008;2023-09-30T08:26:21;10.87;;;7.40;;
3333;SDS011;1679;50.392;8.008;2023-09-30T08:28:47;9.60;;;6.90;;
3333;SDS011;1679;50.392;8.008;2023-09-30T08:31:12;11.73;;;8.20;;
3333;SDS011;1679;50.392;8.008;2023-09-30T08:33:39;15.83;;;9.37;;
3333;SDS011;1679;50.392;8.008;2023-09-30T08:36:06;10.70;;;7.47;;
3333;SDS011;1679;50.392;8.008;2023-09-30T08:38:39;12.10;;;7.80;;
3333;SDS011;1679;50.392;8.008;2023-09-30T08:41:06;12.50;;;8.20;;
3333;SDS011;1679;50.392;8.008;2023-09-30T08:43:39;14.10;;;8.60;;
3333;SDS011;1679;50.392;8.008;2023-09-30T08:46:07;12.50;;;7.37;;
3333;SDS011;1679;50.392;8.008;2023-09-30T08:48:33;13.97;;;8.67;;
3333;SDS011;1679;50.392;8.008;2023-09-30T08:50:59;13.90;;;9.07;;
3333;SDS011;1679;50.392;8.008;2023-09-30T08:53:25;13.53;;;9.37;;
3333;SDS011;1679;50.392;8.008;2023-09-30T08:55:54;14.63;;;9.80;;
3333;SDS011;1679;50.392;8.008;2023-09-30T08:58:23;14.70;;;9.40;;
3333;SDS011;1679;50.392;8.008;2023-09-30T09:00:51;17.00;;;10.30;;
3333;SDS011;1679;50.392;8.008;2023-09-30T09:03:18;16.43;;;10.23;;
3333;SDS011;1679;50.392;8.008;2023-09-30T09:05:44;14.53;;;9.40;;
3333;SDS011;1679;50.392;8.008;2023-09-30T09:08:10;13.80;;;10.63;;
3333;SDS011;1679;50.392;8.008;2023-09-30T09:10:35;17.87;;;10.30;;
3333;SDS011;1679;50.392;8.008;2023-09-30T09:13:11;15.00;;;9.40;;
3333;SDS011;1679;50.392;8.008;2023-09-30T09:15:40;13.70;;;10.37;;
3333;SDS011;1679;50.392;8.008;2023-09-30T09:18:06;15.67;;;10.60;;
3333;SDS011;1679;50.392;8.008;2023-09-30T09:20:31;14.83;;;10.43;;
3333;SDS011;1679;50.392;8.008;2023-09-30T09:22:59;13.57;;;10.00;;
3333;SDS011;1679;50.392;8.008;2023-09-30T09:25:26;13.43;;;10.30;;
3333;SDS011;1679;50.392;8.008;2023-09-30T09:27:52;16.10;;;10.77;;
3333;SDS011;1679;50.392;8.008;2023-09-30T09:32:54;11.93;;;9.07;;
3333;SDS011;1679;50.392;8.008;2023-09-30T09:35:23;12.13;;;8.63;;
3333;SDS011;1679;50.392;8.008;2023-09-30T09:37:58;12.97;;;7.90;;
3333;SDS011;1679;50.392;8.008;2023-09-30T09:40:28;13.43;;;9.50;;
3333;SDS011;1679;50.392;8.008;2023-09-30T09:42:56;14.40;;;10.17;;
3333;SDS011;1679;50.392;8.008;2023-09-30T09:45:22;14.50;;;9.93;;
3333;SDS011;1679;50.392;8.008;2023-09-30T09:47:50;14.93;;;9.77;;
3333;SDS011;1679;50.392;8.008;2023-09-30T09:50:21;13.93;;;10.23;;
3333;SDS011;1679;50.392;8.008;2023-09-30T09:52:48;13.73;;;9.70;;
3333;SDS011;1679;50.392;8.008;2023-09-30T09:55:19;14.00;;;9.97;;
3333;SDS011;1679;50.392;8.008;2023-09-30T09:57:49;16.57;;;10.43;;
3333;SDS011;1679;50.392;8.008;2023-09-30T10:00:15;15.17;;;11.50;;
3333;SDS011;1679;50.392;8.008;2023-09-30T10:02:46;13.97;;;9.33;;
3333;SDS011;1679;50.392;8.008;2023-09-30T10:05:12;12.90;;;9.80;;
3333;SDS011;1679;50.392;8.008;2023-09-30T10:07:41;14.70;;;9.93;;
3333;SDS011;1679;50.392;8.008;2023-09-30T10:10:21;15.27;;;11.00;;
3333;SDS011;1679;50.392;8.008;2023-09-30T10:12:48;19.07;;;10.60;;
3333;SDS011;1679;50.392;8.008;2023-09-30T10:18:09;15.73;;;11.70;;
3333;SDS011;1679;50.392;8.008;2023-09-30T10:20:37;13.73;;;10.80;;
3333;SDS011;1679;50.392;8.008;2023-09-30T10:23:25;17.00;;;11.50;;
3333;SDS011;1679;50.392;8.008;2023-09-30T10:28:48;13.73;;;9.93;;
3333;SDS011;1679;50.392;8.008;2023-09-30T10:31:16;15.07;;;9.73;;
3333;SDS011;1679;50.392;8.008;2023-09-30T10:36:38;14.00;;;9.70;;
3333;SDS011;1679;50.392;8.008;2023-09-30T10:39:06;10.10;;;8.70;;
3333;SDS011;1679;50.392;8.008;2023-09-30T10:46:47;17.07;;;9.20;;
3333;SDS011;1679;50.392;8.008;2023-09-30T10:51:55;14.20;;;8.93;;
3333;SDS011;1679;50.392;8.008;2023-09-30T10:54:26;14.37;;;8.50;;
3333;SDS011;1679;50.392;8.008;2023-09-30T10:56:54;10.87;;;8.03;;
3333;SDS011;1679;50.392;8.008;2023-09-30T10:59:21;9.70;;;7.07;;
3333;SDS011;1679;50.392;8.008;2023-09-30T11:01:49;12.13;;;8.00;;
3333;SDS011;1679;50.392;8.008;2023-09-30T11:04:15;7.90;;;7.10;;
3333;SDS011;1679;50.392;8.008;2023-09-30T11:06:41;9.63;;;7.17;;
3333;SDS011;1679;50.392;8.008;2023-09-30T11:09:07;7.83;;;7.03;;
3333;SDS011;1679;50.392;8.008;2023-09-30T11:11:42;6.23;;;5.63;;
3333;SDS011;1679;50.392;8.008;2023-09-30T11:16:43;6.97;;;5.50;;
3333;SDS011;1679;50.392;8.008;2023-09-30T11:19:09;7.63;;;5.90;;
3333;SDS011;1679;50.392;8.008;2023-09-30T11:21:36;10.40;;;6.43;;
3333;SDS011;1679;50.392;8.008;2023-09-30T11:24:02;8.57;;;6.10;;
3333;SDS011;1679;50.392;8.008;2023-09-30T11:26:31;13.33;;;6.30;;
3333;SDS011;1679;50.392;8.008;2023-09-30T11:31:33;10.30;;;6.83;;
3333;SDS011;1679;50.392;8.008;2023-09-30T11:34:02;8.07;;;6.13;;
3333;SDS011;1679;50.392;8.008;2023-09-30T11:36:31;8.67;;;6.50;;
3333;SDS011;1679;50.392;8.008;2023-09-30T11:38:58;7.23;;;5.50;;
3333;SDS011;1679;50.392;8.008;2023-09-30T11:41:32;6.93;;;4.47;;
3333;SDS011;1679;50.392;8.008;2023-09-30T11:44:09;8.40;;;4.57;;
3333;SDS011;1679;50.392;8.008;2023-09-30T11:51:49;11.07;;;4.73;;
3333;SDS011;1679;50.392;8.008;2023-09-30T11:54:17;7.27;;;5.50;;
3333;SDS011;1679;50.392;8.008;2023-09-30T11:56:43;8.77;;;5.80;;
3333;SDS011;1679;50.392;8.008;2023-09-30T11:59:10;5.10;;;4.60;;
3333;SDS011;1679;50.392;8.008;2023-09-30T12:01:36;8.30;;;5.50;;
3333;SDS011;1679;50.392;8.008;2023-09-30T12:04:02;6.63;;;4.83;;
3333;SDS011;1679;50.392;8.008;2023-09-30T12:06:28;9.20;;;4.67;;
3333;SDS011;1679;50.392;8.008;2023-09-30T12:08:55;7.70;;;5.07;;
3333;SDS011;1679;50.392;8.008;2023-09-30T12:11:21;10.83;;;5.23;;
3333;SDS011;1679;50.392;8.008;2023-09-30T12:13:49;5.80;;;4.70;;
3333;SDS011;1679;50.392;8.008;2023-09-30T12:16:17;6.80;;;4.40;;
3333;SDS011;1679;50.392;8.008;2023-09-30T12:18:42;7.33;;;4.07;;
3333;SDS011;1679;50.392;8.008;2023-09-30T12:21:09;5.00;;;4.20;;
3333;SDS011;1679;50.392;8.008;2023-09-30T12:23:36;7.60;;;4.93;;
3333;SDS011;1679;50.392;8.008;2023-09-30T12:26:02;4.33;;;3.93;;
3333;SDS011;1679;50.392;8.008;2023-09-30T12:28:30;8.23;;;4.50;;
3333;SDS011;1679;50.392;8.008;2023-09-30T12:30:59;4.47;;;4.00;;
3333;SDS011;1679;50.392;8.008;2023-09-30T12:33:29;4.43;;;3.43;;
3333;SDS011;1679;50.392;8.008;2023-09-30T12:35:56;5.13;;;4.30;;
3333;SDS011;1679;50.392;8.008;2023-09-30T12:38:23;4.60;;;3.57;;
3333;SDS011;1679;50.392;8.008;2023-09-30T12:40:52;4.27;;;3.73;;
3333;SDS011;1679;50.392;8.008;2023-09-30T12:43:18;5.83;;;4.30;;
3333;SDS011;1679;50.392;8.008;2023-09-30T12:45:45;4.50;;;4.03;;
3333;SDS011;1679;50.392;8.008;2023-09-30T12:48:11;4.07;;;3.70;;
3333;SDS011;1679;50.392;8.008;2023-09-30T12:50:38;4.17;;;3.40;;
3333;SDS011;1679;50.392;8.008;2023-09-30T12:53:06;4.87;;;3.10;;
3333;SDS011;1679;50.392;8.008;2023-09-30T12:55:32;4.13;;;3.67;;
3333;SDS011;1679;50.392;8.008;2023-09-30T12:57:58;4.47;;;3.50;;
3333;SDS011;1679;50.392;8.008;2023-09-30T13:00:25;4.93;;;3.23;;
3333;SDS011;1679;50.392;8.008;2023-09-30T13:02:52;4.40;;;3.90;;
3333;SDS011;1679;50.392;8.008;2023-09-30T13:05:18;3.93;;;3.53;;
3333;SDS011;1679;50.392;8.008;2023-09-30T13:07:44;5.70;;;3.40;;
3333;SDS011;1679;50.392;8.008;2023-09-30T13:10:12;5.80;;;3.77;;
3333;SDS011;1679;50.392;8.008;2023-09-30T13:12:38;6.63;;;3.07;;
3333;SDS011;1679;50.392;8.008;2023-09-30T13:15:04;5.27;;;3.33;;
3333;SDS011;1679;50.392;8.008;2023-09-30T13:17:30;4.03;;;3.53;;
3333;SDS011;1679;50.392;8.008;2023-09-30T13:19:56;3.60;;;3.30;;
3333;SDS011;1679;50.392;8.008;2023-09-30T13:22:23;5.53;;;3.40;;
3333;SDS011;1679;50.392;8.008;2023-09-30T13:24:48;3.87;;;3.40;;
3333;SDS011;1679;50.392;8.008;2023-09-30T13:27:14;4.10;;;3.57;;
3333;SDS011;1679;50.392;8.008;2023-09-30T13:29:41;4.30;;;3.50;;
3333;SDS011;1679;50.392;8.008;2023-09-30T13:32:09;5.53;;;2.80;;
3333;SDS011;1679;50.392;8.008;2023-09-30T13:34:35;11.97;;;3.77;;
3333;SDS011;1679;50.392;8.008;2023-09-30T13:37:01;7.77;;;4.13;;
3333;SDS011;1679;50.392;8.008;2023-09-30T13:39:26;3.90;;;3.50;;
3333;SDS011;1679;50.392;8.008;2023-09-30T13:41:53;4.80;;;3.23;;
3333;SDS011;1679;50.392;8.008;2023-09-30T13:44:20;3.37;;;3.07;;
3333;SDS011;1679;50.392;8.008;2023-09-30T13:46:46;4.03;;;3.50;;
3333;SDS011;1679;50.392;8.008;2023-09-30T13:49:12;6.17;;;3.20;;
3333;SDS011;1679;50.392;8.008;2023-09-30T13:51:40;4.50;;;3.07;;
3333;SDS011;1679;50.392;8.008;2023-09-30T13:54:06;3.73;;;3.03;;
3333;SDS011;1679;50.392;8.008;2023-09-30T13:56:32;5.60;;;3.63;;
3333;SDS011;1679;50.392;8.008;2023-09-30T13:58:58;3.30;;;3.00;;
3333;SDS011;1679;50.392;8.008;2023-09-30T14:01:24;3.90;;;3.00;;
3333;SDS011;1679;50.392;8.008;2023-09-30T14:03:50;5.33;;;3.63;;
3333;SDS011;1679;50.392;8.008;2023-09-30T14:06:20;3.27;;;3.07;;
3333;SDS011;1679;50.392;8.008;2023-09-30T14:08:47;3.50;;;3.20;;
3333;SDS011;1679;50.392;8.008;2023-09-30T14:11:12;3.77;;;3.43;;
3333;SDS011;1679;50.392;8.008;2023-09-30T14:13:38;14.47;;;9.97;;
3333;SDS011;1679;50.392;8.008;2023-09-30T14:16:04;9.87;;;6.70;;
3333;SDS011;1679;50.392;8.008;2023-09-30T14:18:30;5.30;;;3.30;;
3333;SDS011;1679;50.392;8.008;2023-09-30T14:20:57;3.40;;;3.10;;
3333;SDS011;1679;50.392;8.008;2023-09-30T14:23:24;4.10;;;3.60;;
3333;SDS011;1679;50.392;8.008;2023-09-30T14:25:49;4.03;;;3.50;;
3333;SDS011;1679;50.392;8.008;2023-09-30T14:28:18;6.17;;;3.50;;
3333;SDS011;1679;50.392;8.008;2023-09-30T14:30:44;3.80;;;3.23;;
3333;SDS011;1679;50.392;8.008;2023-09-30T14:33:09;5.00;;;3.20;;
3333;SDS011;1679;50.392;8.008;2023-09-30T14:35:36;5.37;;;3.60;;
3333;SDS011;1679;50.392;8.008;2023-09-30T14:38:04;16.60;;;12.30;;
3333;SDS011;1679;50.392;8.008;2023-09-30T14:40:30;5.27;;;3.97;;
3333;SDS011;1679;50.392;8.008;2023-09-30T14:42:57;4.60;;;3.73;;
3333;SDS011;1679;50.392;8.008;2023-09-30T14:45:22;4.10;;;3.63;;
3333;SDS011;1679;50.392;8.008;2023-09-30T14:47:48;3.80;;;3.50;;
3333;SDS011;1679;50.392;8.008;2023-09-30T14:50:14;4.37;;;3.93;;
3333;SDS011;1679;50.392;8.008;2023-09-30T14:52:40;6.50;;;4.00;;
3333;SDS011;1679;50.392;8.008;2023-09-30T14:55:06;4.00;;;3.67;;
3333;SDS011;1679;50.392;8.008;2023-09-30T14:57:32;5.90;;;3.60;;
3333;SDS011;1679;50.392;8.008;2023-09-30T14:59:58;5.60;;;3.63;;
3333;SDS011;1679;50.392;8.008;2023-09-30T15:02:25;4.93;;;3.43;;
3333;SDS011;1679;50.392;8.008;2023-09-30T15:04:52;4.33;;;3.93;;
3333;SDS011;1679;50.392;8.008;2023-09-30T15:07:18;3.63;;;3.33;;
3333;SDS011;1679;50.392;8.008;2023-09-30T15:09:45;4.10;;;3.70;;
3333;SDS011;1679;50.392;8.008;2023-09-30T15:12:10;4.43;;;4.03;;
3333;SDS011;1679;50.392;8.008;2023-09-30T15:14:36;4.87;;;4.47;;
3333;SDS011;1679;50.392;8.008;2023-09-30T15:17:01;5.87;;;4.40;;
3333;SDS011;1679;50.392;8.008;2023-09-30T15:19:28;5.73;;;4.43;;
3333;SDS011;1679;50.392;8.008;2023-09-30T15:21:54;4.73;;;4.00;;
3333;SDS011;1679;50.392;8.008;2023-09-30T15:24:21;4.17;;;3.80;;
3333;SDS011;1679;50.392;8.008;2023-09-30T15:26:46;4.13;;;3.73;;
3333;SDS011;1679;50.392;8.008;2023-09-30T15:29:12;4.20;;;3.80;;
3333;SDS011;1679;50.392;8.008;2023-09-30T15:31:37;5.30;;;3.73;;